Time;durP1;ratioP1;P1;durP2;ratioP2;P2;SDS_P1;SDS_P2;PMS_P1;PMS_P2;Temp;Humidity;BMP_temperature;BMP_pressure;BME280_temperature;BME280_humidity;BME280_pressure;Samples;Min_cycle;Max_cycle;Signal;HPM_P1;HPM_P2
2023/11/07 00:01:30;;;;;;;10.68;6.97;;;;;;;;;;12698412;23;20020;-71
2023/11/07 00:06:26;;;;;;;13.02;7.65;;;;;;;;;;12699154;22;20020;-70
2023/11/07 00:11:23;;;;;;;12.70;7.40;;;;;;;;;;12698215;23;20458;-68
2023/11/07 00:16:19;;;;;;;9.73;7.40;;;;;;;;;;12698260;22;20392;-69
2023/11/07 00:21:16;;;;;;;11.55;7.47;;;;;;;;;;12693020;23;20034;-68
2023/11/07 00:26:13;;;;;;;10.32;7.05;;;;;;;;;;12671604;22;20028;-69
2023/11/07 00:31:10;;;;;;;11.98;6.90;;;;;;;;;;12697165;23;20032;-69
2023/11/07 00:36:07;;;;;;;14.68;7.55;;;;;;;;;;12697706;22;20024;-68
2023/11/07 00:41:03;;;;;;;10.95;7.32;;;;;;;;;;12697377;23;20052;-69
2023/11/07 00:46:00;;;;;;;14.43;7.28;;;;;;;;;;12697844;22;20035;-69
2023/11/07 00:50:56;;;;;;;10.07;6.43;;;;;;;;;;12696618;23;20074;-71
2023/11/07 00:55:52;;;;;;;11.93;6.82;;;;;;;;;;12697117;22;20545;-70
2023/11/07 01:00:49;;;;;;;9.55;6.82;;;;;;;;;;12697717;23;20458;-69
2023/11/07 01:05:45;;;;;;;11.15;6.75;;;;;;;;;;12671243;22;20030;-70
2023/11/07 01:10:42;;;;;;;10.13;6.93;;;;;;;;;;12696247;23;20118;-71
2023/11/07 01:15:38;;;;;;;12.73;6.88;;;;;;;;;;12697933;22;20024;-69
2023/11/07 01:20:34;;;;;;;8.48;6.57;;;;;;;;;;12696632;23;20015;-68
2023/11/07 01:25:31;;;;;;;10.57;6.32;;;;;;;;;;12691946;22;20020;-70
2023/11/07 01:30:27;;;;;;;13.60;6.70;;;;;;;;;;12696916;23;20534;-69
2023/11/07 01:35:24;;;;;;;18.17;6.97;;;;;;;;;;12697547;22;20022;-69
2023/11/07 01:40:20;;;;;;;10.00;6.70;;;;;;;;;;12696798;23;20024;-69
2023/11/07 01:45:17;;;;;;;12.65;6.93;;;;;;;;;;12697450;22;20023;-69
2023/11/07 01:50:14;;;;;;;13.70;6.20;;;;;;;;;;12696161;23;20099;-69
2023/11/07 01:55:12;;;;;;;14.98;7.25;;;;;;;;;;12696643;22;20036;-69
2023/11/07 02:00:11;;;;;;;14.43;6.10;;;;;;;;;;12696023;23;20028;-68
2023/11/07 02:05:12;;;;;;;15.25;6.30;;;;;;;;;;12670276;22;20098;-68
2023/11/07 02:10:10;;;;;;;13.98;7.30;;;;;;;;;;12670366;23;20024;-69
2023/11/07 02:15:22;;;;;;;16.25;7.22;;;;;;;;;;12696966;22;20020;-68
2023/11/07 02:20:19;;;;;;;17.25;7.07;;;;;;;;;;12695804;23;20074;-68
2023/11/07 02:25:16;;;;;;;10.80;6.45;;;;;;;;;;12695935;22;20020;-69
2023/11/07 02:30:13;;;;;;;9.85;5.85;;;;;;;;;;12690304;23;20086;-68
2023/11/07 02:35:12;;;;;;;11.98;6.22;;;;;;;;;;12696041;22;20031;-68
2023/11/07 02:40:10;;;;;;;15.75;7.25;;;;;;;;;;12695581;23;20032;-70
2023/11/07 02:45:06;;;;;;;10.23;6.45;;;;;;;;;;12696473;22;20051;-71
2023/11/07 02:50:03;;;;;;;12.43;6.20;;;;;;;;;;12695475;23;20047;-69
2023/11/07 02:55:00;;;;;;;16.58;6.15;;;;;;;;;;12670673;22;20031;-68
2023/11/07 02:59:56;;;;;;;12.02;6.20;;;;;;;;;;12690744;23;20020;-69
2023/11/07 03:04:54;;;;;;;14.10;6.60;;;;;;;;;;12694222;22;20099;-68
2023/11/07 03:09:51;;;;;;;14.38;6.70;;;;;;;;;;12688433;23;20038;-71
2023/11/07 03:14:48;;;;;;;8.57;5.93;;;;;;;;;;12697580;22;20044;-71
2023/11/07 03:19:49;;;;;;;11.27;6.05;;;;;;;;;;12698581;23;20027;-71
2023/11/07 03:24:46;;;;;;;11.73;5.85;;;;;;;;;;12697993;22;20020;-71
2023/11/07 03:29:42;;;;;;;16.65;6.13;;;;;;;;;;12698207;23;20024;-70
2023/11/07 03:34:38;;;;;;;11.10;5.82;;;;;;;;;;12693243;22;20698;-70
2023/11/07 03:39:35;;;;;;;11.27;5.90;;;;;;;;;;12671303;23;20417;-70
2023/11/07 03:44:31;;;;;;;10.55;5.68;;;;;;;;;;12697721;22;20027;-70
2023/11/07 03:49:27;;;;;;;12.77;5.63;;;;;;;;;;12697383;23;20047;-72
2023/11/07 03:54:24;;;;;;;9.98;5.28;;;;;;;;;;12698141;22;20409;-70
2023/11/07 03:59:20;;;;;;;8.50;5.50;;;;;;;;;;12696772;23;20111;-70
2023/11/07 04:04:17;;;;;;;22.27;6.47;;;;;;;;;;12697474;22;20358;-70
2023/11/07 04:09:14;;;;;;;8.82;5.82;;;;;;;;;;12697042;23;20028;-69
2023/11/07 04:14:10;;;;;;;16.83;6.65;;;;;;;;;;12669625;22;20032;-73
2023/11/07 04:19:07;;;;;;;9.52;6.30;;;;;;;;;;12697206;23;20412;-73
2023/11/07 04:24:07;;;;;;;17.48;6.65;;;;;;;;;;12669635;22;20031;-73
2023/11/07 04:29:06;;;;;;;15.80;6.95;;;;;;;;;;12691604;23;20027;-71
2023/11/07 04:34:03;;;;;;;17.02;7.68;;;;;;;;;;12695986;22;20103;-72
2023/11/07 04:39:00;;;;;;;8.80;6.25;;;;;;;;;;12694854;23;20020;-73
2023/11/07 04:43:57;;;;;;;13.65;6.72;;;;;;;;;;12697134;22;20027;-75
2023/11/07 04:48:54;;;;;;;11.52;6.68;;;;;;;;;;12663293;23;20335;-74
2023/11/07 04:53:51;;;;;;;11.40;7.22;;;;;;;;;;12695079;23;20470;-74
2023/11/07 04:58:47;;;;;;;16.42;7.90;;;;;;;;;;12639650;22;20030;-73
2023/11/07 05:03:54;;;;;;;16.92;8.23;;;;;;;;;;12693494;23;20027;-73
2023/11/07 05:08:51;;;;;;;12.38;7.60;;;;;;;;;;12633689;23;20052;-72
2023/11/07 05:13:48;;;;;;;11.48;7.72;;;;;;;;;;12631977;23;20352;-74
2023/11/07 05:18:44;;;;;;;12.90;7.95;;;;;;;;;;12633072;23;20029;-75
2023/11/07 05:23:41;;;;;;;15.13;8.68;;;;;;;;;;12629756;23;20025;-74
2023/11/07 05:28:38;;;;;;;19.35;9.27;;;;;;;;;;12631041;23;20028;-74
2023/11/07 05:33:36;;;;;;;15.50;8.63;;;;;;;;;;12632059;23;20082;-74
2023/11/07 05:38:32;;;;;;;19.80;9.05;;;;;;;;;;12632922;23;20029;-75
2023/11/07 05:43:29;;;;;;;14.50;8.90;;;;;;;;;;12606276;23;20063;-74
2023/11/07 05:48:26;;;;;;;15.45;9.57;;;;;;;;;;12625914;23;20025;-74
2023/11/07 05:53:22;;;;;;;17.52;9.05;;;;;;;;;;12603694;23;20032;-74
2023/11/07 06:04:32;;;;;;;15.15;8.85;;;;;;;;;;12649642;22;20434;-75
2023/11/07 06:09:28;;;;;;;12.38;8.45;;;;;;;;;;12668378;23;20020;-74
2023/11/07 06:14:25;;;;;;;24.77;9.05;;;;;;;;;;12695156;22;20458;-74
2023/11/07 06:19:21;;;;;;;18.02;9.10;;;;;;;;;;12669256;23;20729;-74
2023/11/07 06:24:18;;;;;;;15.75;8.70;;;;;;;;;;12694392;22;20031;-74
2023/11/07 06:29:15;;;;;;;13.63;7.72;;;;;;;;;;12695273;23;20020;-74
2023/11/07 07:03:37;;;;;;;14.45;8.52;;;;;;;;;;12215372;23;20019;-75
2023/11/07 08:00:24;;;;;;;;;;;;;;;;;;;;;
2023/11/07 08:16:12;;;;;;;11.13;7.53;;;;;;;;;;12684237;22;20016;-76
2023/11/07 09:21:43;;;;;;;;;;;;;;;;;;;;;
2023/11/07 10:42:33;;;;;;;11.25;5.88;;;;;;;;;;12692682;23;20004;-74
2023/11/07 10:48:07;;;;;;;;;;;;;;;;;;;;;
2023/11/07 13:25:15;;;;;;;6.97;4.88;;;;;;;;;;12653003;22;20264;-74
2023/11/07 13:53:16;;;;;;;;;;;;;;;;;;;;;
2023/11/07 13:58:30;;;;;;;8.13;4.80;;;;;;;;;;12642042;22;20028;-73
2023/11/07 14:03:27;;;;;;;9.30;4.93;;;;;;;;;;12693047;23;20051;-72
2023/11/07 14:08:24;;;;;;;6.38;5.50;;;;;;;;;;12695059;22;20025;-75
2023/11/07 14:13:20;;;;;;;8.80;6.32;;;;;;;;;;12695838;23;20450;-75
2023/11/07 14:24:14;;;;;;;10.05;5.43;;;;;;;;;;12694892;22;20020;-75
2023/11/07 14:29:11;;;;;;;9.85;5.63;;;;;;;;;;12694895;23;20028;-74
2023/11/07 14:34:27;;;;;;;9.80;5.40;;;;;;;;;;12692828;22;20074;-75
2023/11/07 14:39:24;;;;;;;6.55;4.50;;;;;;;;;;12695174;23;20111;-74
2023/11/07 14:44:20;;;;;;;5.25;4.75;;;;;;;;;;12695556;22;20533;-74
2023/11/07 14:49:16;;;;;;;9.48;4.30;;;;;;;;;;12694899;23;20032;-74
2023/11/07 14:54:13;;;;;;;7.18;4.68;;;;;;;;;;12694312;22;20031;-74
2023/11/07 15:15:52;;;;;;;5.60;5.05;;;;;;;;;;11565091;23;21661280;-73
2023/11/07 15:20:49;;;;;;;6.15;5.55;;;;;;;;;;12528789;23;20029;-74
2023/11/07 15:25:45;;;;;;;5.50;5.00;;;;;;;;;;12528889;23;20025;-73
2023/11/07 15:30:42;;;;;;;5.93;5.32;;;;;;;;;;12529360;23;20026;-74
2023/11/07 15:35:41;;;;;;;5.95;5.35;;;;;;;;;;12530347;23;20032;-74
2023/11/07 15:40:39;;;;;;;6.75;5.38;;;;;;;;;;12501088;23;20021;-74
2023/11/07 16:02:34;;;;;;;8.35;6.10;;;;;;;;;;12705722;22;20020;-75
2023/11/07 17:23:06;;;;;;;6.65;5.10;;;;;;;;;;12690705;23;20024;-74
2023/11/07 17:28:03;;;;;;;7.85;5.78;;;;;;;;;;12692216;23;20654;-75
2023/11/07 17:32:59;;;;;;;10.45;7.00;;;;;;;;;;12690970;23;20460;-75
2023/11/07 18:21:53;;;;;;;5.72;5.22;;;;;;;;;;12679149;22;20023;-74
2023/11/07 18:26:51;;;;;;;10.25;6.18;;;;;;;;;;12685255;23;20028;-74
2023/11/07 18:31:49;;;;;;;7.00;6.32;;;;;;;;;;12687910;23;20366;-75
2023/11/07 19:00:38;;;;;;;12.48;7.43;;;;;;;;;;12093378;24;20028;-72
2023/11/07 19:52:12;;;;;;;12.85;7.63;;;;;;;;;;12034940;24;20017;-75
2023/11/07 19:57:22;;;;;;;9.25;7.68;;;;;;;;;;12254700;23;20074;-76
2023/11/07 20:02:21;;;;;;;11.82;7.18;;;;;;;;;;12673752;22;20665;-75
2023/11/07 20:07:18;;;;;;;9.95;7.05;;;;;;;;;;12699382;22;20054;-75
2023/11/07 20:12:17;;;;;;;9.05;7.00;;;;;;;;;;12703118;22;20054;-76
2023/11/07 20:17:13;;;;;;;12.63;7.47;;;;;;;;;;12688395;22;20024;-76
2023/11/07 20:22:10;;;;;;;12.85;6.45;;;;;;;;;;12689641;22;20078;-75
2023/11/07 21:01:56;;;;;;;9.07;7.72;;;;;;;;;;12761149;22;20603;-74
2023/11/07 21:06:54;;;;;;;11.20;7.43;;;;;;;;;;12741510;22;20027;-70
2023/11/07 21:11:51;;;;;;;11.50;7.38;;;;;;;;;;12766737;22;20023;-71
2023/11/07 21:16:48;;;;;;;8.32;7.55;;;;;;;;;;12814221;22;20758;-69
2023/11/07 21:21:47;;;;;;;9.50;6.88;;;;;;;;;;12814996;22;20567;-69
2023/11/07 21:26:43;;;;;;;8.52;7.38;;;;;;;;;;12815494;22;20019;-69
2023/11/07 21:31:41;;;;;;;10.52;6.85;;;;;;;;;;12810960;22;20099;-68
2023/11/07 21:36:38;;;;;;;7.43;6.75;;;;;;;;;;12815329;22;20031;-68
2023/11/07 21:41:39;;;;;;;8.20;7.05;;;;;;;;;;12815601;22;20023;-68
2023/11/07 21:46:36;;;;;;;12.27;7.25;;;;;;;;;;12816963;22;20027;-68
2023/11/07 21:51:33;;;;;;;12.75;7.40;;;;;;;;;;12811835;22;20086;-69
2023/11/07 21:56:29;;;;;;;12.13;7.20;;;;;;;;;;12816361;22;20073;-69
2023/11/07 22:01:25;;;;;;;10.27;6.50;;;;;;;;;;12814631;22;20073;-69
2023/11/07 22:06:22;;;;;;;10.73;6.95;;;;;;;;;;12816495;22;20022;-69
2023/11/07 22:11:19;;;;;;;9.23;6.43;;;;;;;;;;12815994;22;20021;-69
2023/11/07 22:16:16;;;;;;;11.82;6.55;;;;;;;;;;12810852;22;20103;-69
2023/11/07 22:21:13;;;;;;;12.30;6.78;;;;;;;;;;12815970;22;20068;-69
2023/11/07 22:26:09;;;;;;;8.43;6.25;;;;;;;;;;12816317;22;20073;-69
2023/11/07 22:31:06;;;;;;;14.43;6.25;;;;;;;;;;12815782;22;20027;-69
2023/11/07 22:36:05;;;;;;;13.77;6.05;;;;;;;;;;12810191;22;20076;-69
2023/11/07 22:41:02;;;;;;;12.63;5.95;;;;;;;;;;12815842;22;20023;-69
2023/11/07 22:45:58;;;;;;;9.82;5.32;;;;;;;;;;12816725;22;20194;-69
2023/11/07 22:50:54;;;;;;;7.55;5.72;;;;;;;;;;12816516;22;20027;-68
2023/11/07 22:55:51;;;;;;;9.88;5.90;;;;;;;;;;12816571;22;20636;-68
2023/11/07 23:00:48;;;;;;;10.20;6.38;;;;;;;;;;12816092;22;20060;-69
2023/11/07 23:05:45;;;;;;;8.00;6.03;;;;;;;;;;12815642;22;20023;-69
2023/11/07 23:10:42;;;;;;;8.43;6.63;;;;;;;;;;12815425;22;20508;-69
2023/11/07 23:15:38;;;;;;;8.60;6.40;;;;;;;;;;12814745;22;20019;-68
2023/11/07 23:20:35;;;;;;;8.85;6.07;;;;;;;;;;12815571;22;20669;-69
2023/11/07 23:25:31;;;;;;;7.63;6.25;;;;;;;;;;12814818;22;20080;-69
2023/11/07 23:30:28;;;;;;;6.60;5.70;;;;;;;;;;12809124;22;20097;-69
2023/11/07 23:35:24;;;;;;;11.90;6.40;;;;;;;;;;12811990;22;20023;-70
2023/11/07 23:40:22;;;;;;;11.23;6.15;;;;;;;;;;12815479;22;20033;-69
2023/11/07 23:45:18;;;;;;;13.98;6.63;;;;;;;;;;12815967;22;20023;-68
2023/11/07 23:50:16;;;;;;;11.40;6.93;;;;;;;;;;12817197;22;20384;-69
2023/11/07 23:55:12;;;;;;;9.85;7.20;;;;;;;;;;12819120;22;20049;-69
